Airfield :







YOU CAN JOIN US ON...

 
LOGIN :

Register | Disclaimer

   EN    FR    IT 

 









Legend :    VFR   Marginal VFR   IFR   Intensive IFR   Very Intensive IFR
Visi :
Ceiling :
>= 8 km
>= 3000ft
5 to 8 km
1000 to 3000 ft
1500m to 5 km
500 to 1000 ft
800 to 1500m
200 to 500 ft
< 800m
< 200 ft
Symbols :   Thunderstorms  Fog  Heavy snow  Heavy precipitations  Wind > 20 kt






- Airport Elevation : 827 ft


KDDH - William H. Morse State

CURRENT METAR :
  • 160854Z AUTO VRB03KT 10SM SCT042 M06/M12 A3016 RMK AO2 SNB0757E27B46E50 SLP223 P0000 60000 T10561122 50021

EXPIRED METARs :
  • 160754Z AUTO 27005KT 10SM CLR M06/M13 A3016 RMK AO2 SNE47 SLP224 P0000 T10561128
  • 160654Z AUTO 29004KT 9SM -SN CLR M05/M12 A3013 RMK AO2 SLP211 P0000 T10501122

TAF N/A



MET'MAP, your aeronautical weather chart ! - Copyright ORBIFLY December 2007 - Disclaimer

ORBIFLY MET'MAP TEAM :

Programming & Development : Alexandra Zaïnal
Concept & original design : Baudouin d'Aumeries
Assistance for programming : Marc-Olivier Méhu
Technical & hardware support : Manuel Goepfert

Contact : metmap@orbifly.com




SOURCES & CREDITS :

   NOAA